Vila Pavao, Brazil
Current Conditions -  °F | °C
As of 6:00 AM on Thursday 23 Oct 2014 (Local Time) from SBVT Reporting Station
Overcast Overcast  
Wind Chill: 70°   Ceiling: 2200
Heat Index: 70°   Visibility: 6mi
Dew Point: 61°   Wind: 8mph
Humidity: 73%   Direction: 200°SSW
Pressure: 30.15"   Gusts: NA
Location:  18.62°S, 40.61°W
Report Text: SBVT 230800Z 20007KT 9999 BKN022 OVC070 21/16 Q1021
Loading
Personal Weather Stations






























Interactive Weather Map
Tropical Storm Tracking
New forecast layout! Learn more

10-Day Weather Forecast

Advertisements
Track Severe Weather on mobile